sensor_id;sensor_type;location;lat;lon;timestamp;P1;durP1;ratioP1;P2;durP2;ratioP2
9240;SDS011;53485;49.326;9.738;2022-07-17T00:00:15;2.37;;;0.90;;
9240;SDS011;53485;49.326;9.738;2022-07-17T00:02:42;1.37;;;1.07;;
9240;SDS011;53485;49.326;9.738;2022-07-17T00:05:10;1.00;;;0.77;;
9240;SDS011;53485;49.326;9.738;2022-07-17T00:07:37;1.00;;;0.70;;
9240;SDS011;53485;49.326;9.738;2022-07-17T00:10:05;3.17;;;0.90;;
9240;SDS011;53485;49.326;9.738;2022-07-17T00:12:33;2.37;;;1.17;;
9240;SDS011;53485;49.326;9.738;2022-07-17T00:15:00;1.30;;;1.00;;
9240;SDS011;53485;49.326;9.738;2022-07-17T00:17:27;2.87;;;0.80;;
9240;SDS011;53485;49.326;9.738;2022-07-17T00:19:55;1.23;;;0.80;;
9240;SDS011;53485;49.326;9.738;2022-07-17T00:22:22;0.90;;;0.70;;
9240;SDS011;53485;49.326;9.738;2022-07-17T00:24:49;0.80;;;0.80;;
9240;SDS011;53485;49.326;9.738;2022-07-17T00:27:17;4.17;;;1.10;;
9240;SDS011;53485;49.326;9.738;2022-07-17T00:29:44;1.00;;;0.90;;
9240;SDS011;53485;49.326;9.738;2022-07-17T00:32:12;1.43;;;0.90;;
9240;SDS011;53485;49.326;9.738;2022-07-17T00:34:39;1.37;;;0.90;;
9240;SDS011;53485;49.326;9.738;2022-07-17T00:37:07;2.27;;;1.00;;
9240;SDS011;53485;49.326;9.738;2022-07-17T00:39:34;1.00;;;0.87;;
9240;SDS011;53485;49.326;9.738;2022-07-17T00:42:01;0.80;;;0.80;;
9240;SDS011;53485;49.326;9.738;2022-07-17T00:44:29;2.10;;;0.80;;
9240;SDS011;53485;49.326;9.738;2022-07-17T00:46:56;1.27;;;1.17;;
9240;SDS011;53485;49.326;9.738;2022-07-17T00:49:24;5.80;;;1.00;;
9240;SDS011;53485;49.326;9.738;2022-07-17T00:51:51;1.00;;;0.80;;
9240;SDS011;53485;49.326;9.738;2022-07-17T00:54:19;1.23;;;1.10;;
9240;SDS011;53485;49.326;9.738;2022-07-17T00:56:46;1.20;;;0.80;;
9240;SDS011;53485;49.326;9.738;2022-07-17T00:59:13;1.63;;;0.70;;
9240;SDS011;53485;49.326;9.738;2022-07-17T01:01:40;2.20;;;0.90;;
9240;SDS011;53485;49.326;9.738;2022-07-17T01:04:07;1.43;;;0.80;;
9240;SDS011;53485;49.326;9.738;2022-07-17T01:06:35;1.20;;;0.80;;
9240;SDS011;53485;49.326;9.738;2022-07-17T01:09:02;1.53;;;0.90;;
9240;SDS011;53485;49.326;9.738;2022-07-17T01:11:29;2.23;;;0.63;;
9240;SDS011;53485;49.326;9.738;2022-07-17T01:13:56;1.90;;;0.83;;
9240;SDS011;53485;49.326;9.738;2022-07-17T01:16:23;2.90;;;0.80;;
9240;SDS011;53485;49.326;9.738;2022-07-17T01:18:50;2.83;;;1.00;;
9240;SDS011;53485;49.326;9.738;2022-07-17T01:21:17;0.90;;;0.70;;
9240;SDS011;53485;49.326;9.738;2022-07-17T01:23:44;1.10;;;0.93;;
9240;SDS011;53485;49.326;9.738;2022-07-17T01:26:12;2.43;;;1.20;;
9240;SDS011;53485;49.326;9.738;2022-07-17T01:28:39;3.33;;;0.70;;
9240;SDS011;53485;49.326;9.738;2022-07-17T01:31:06;1.83;;;0.83;;
9240;SDS011;53485;49.326;9.738;2022-07-17T01:33:34;2.20;;;0.87;;
9240;SDS011;53485;49.326;9.738;2022-07-17T01:36:01;3.17;;;0.90;;
9240;SDS011;53485;49.326;9.738;2022-07-17T01:38:29;1.60;;;0.90;;
9240;SDS011;53485;49.326;9.738;2022-07-17T01:40:56;0.70;;;0.70;;
9240;SDS011;53485;49.326;9.738;2022-07-17T01:43:24;2.73;;;0.90;;
9240;SDS011;53485;49.326;9.738;2022-07-17T01:45:51;1.70;;;0.83;;
9240;SDS011;53485;49.326;9.738;2022-07-17T01:48:22;1.03;;;0.90;;
9240;SDS011;53485;49.326;9.738;2022-07-17T01:50:50;0.70;;;0.70;;
9240;SDS011;53485;49.326;9.738;2022-07-17T01:53:17;4.87;;;1.00;;
9240;SDS011;53485;49.326;9.738;2022-07-17T01:55:45;4.10;;;0.83;;
9240;SDS011;53485;49.326;9.738;2022-07-17T01:58:12;1.77;;;0.90;;
9240;SDS011;53485;49.326;9.738;2022-07-17T02:00:38;2.13;;;0.80;;
9240;SDS011;53485;49.326;9.738;2022-07-17T02:03:05;3.67;;;0.80;;
9240;SDS011;53485;49.326;9.738;2022-07-17T02:05:33;1.97;;;0.80;;
9240;SDS011;53485;49.326;9.738;2022-07-17T02:08:00;0.73;;;0.63;;
9240;SDS011;53485;49.326;9.738;2022-07-17T02:10:27;4.53;;;1.10;;
9240;SDS011;53485;49.326;9.738;2022-07-17T02:12:54;2.13;;;0.90;;
9240;SDS011;53485;49.326;9.738;2022-07-17T02:15:21;1.97;;;0.90;;
9240;SDS011;53485;49.326;9.738;2022-07-17T02:17:49;0.87;;;0.77;;
9240;SDS011;53485;49.326;9.738;2022-07-17T02:20:15;1.93;;;1.03;;
9240;SDS011;53485;49.326;9.738;2022-07-17T02:22:43;4.73;;;0.90;;
9240;SDS011;53485;49.326;9.738;2022-07-17T02:25:10;0.60;;;0.60;;
9240;SDS011;53485;49.326;9.738;2022-07-17T02:27:37;0.83;;;0.63;;
9240;SDS011;53485;49.326;9.738;2022-07-17T02:30:06;1.17;;;0.80;;
9240;SDS011;53485;49.326;9.738;2022-07-17T02:32:32;0.93;;;0.63;;
9240;SDS011;53485;49.326;9.738;2022-07-17T02:35:00;1.33;;;0.80;;
9240;SDS011;53485;49.326;9.738;2022-07-17T02:37:27;2.30;;;0.80;;
9240;SDS011;53485;49.326;9.738;2022-07-17T02:39:54;3.03;;;1.00;;
9240;SDS011;53485;49.326;9.738;2022-07-17T02:42:23;1.63;;;0.90;;
9240;SDS011;53485;49.326;9.738;2022-07-17T02:44:49;1.60;;;0.90;;
9240;SDS011;53485;49.326;9.738;2022-07-17T02:47:20;1.20;;;1.00;;
9240;SDS011;53485;49.326;9.738;2022-07-17T02:49:46;1.47;;;0.80;;
9240;SDS011;53485;49.326;9.738;2022-07-17T02:52:14;2.07;;;0.90;;
9240;SDS011;53485;49.326;9.738;2022-07-17T02:54:41;1.93;;;1.00;;
9240;SDS011;53485;49.326;9.738;2022-07-17T02:57:08;1.50;;;1.00;;
9240;SDS011;53485;49.326;9.738;2022-07-17T02:59:36;4.73;;;1.10;;
9240;SDS011;53485;49.326;9.738;2022-07-17T03:02:03;1.53;;;1.20;;
9240;SDS011;53485;49.326;9.738;2022-07-17T03:04:30;1.93;;;1.10;;
9240;SDS011;53485;49.326;9.738;2022-07-17T03:06:57;3.70;;;1.07;;
9240;SDS011;53485;49.326;9.738;2022-07-17T03:09:24;2.50;;;0.97;;
9240;SDS011;53485;49.326;9.738;2022-07-17T03:11:51;1.10;;;0.90;;
9240;SDS011;53485;49.326;9.738;2022-07-17T03:14:19;1.77;;;0.90;;
9240;SDS011;53485;49.326;9.738;2022-07-17T03:16:46;8.03;;;1.20;;
9240;SDS011;53485;49.326;9.738;2022-07-17T03:19:14;1.73;;;1.00;;
9240;SDS011;53485;49.326;9.738;2022-07-17T03:21:41;2.33;;;1.10;;
9240;SDS011;53485;49.326;9.738;2022-07-17T03:24:08;1.80;;;1.10;;
9240;SDS011;53485;49.326;9.738;2022-07-17T03:26:36;1.10;;;0.90;;
9240;SDS011;53485;49.326;9.738;2022-07-17T03:29:03;2.93;;;1.00;;
9240;SDS011;53485;49.326;9.738;2022-07-17T03:31:30;4.93;;;1.10;;
9240;SDS011;53485;49.326;9.738;2022-07-17T03:33:58;3.93;;;1.10;;
9240;SDS011;53485;49.326;9.738;2022-07-17T03:36:25;1.97;;;1.17;;
9240;SDS011;53485;49.326;9.738;2022-07-17T03:38:53;2.03;;;1.33;;
9240;SDS011;53485;49.326;9.738;2022-07-17T03:41:20;0.80;;;0.80;;
9240;SDS011;53485;49.326;9.738;2022-07-17T03:43:47;2.47;;;1.10;;
9240;SDS011;53485;49.326;9.738;2022-07-17T03:46:15;1.10;;;1.00;;
9240;SDS011;53485;49.326;9.738;2022-07-17T03:48:42;2.30;;;1.10;;
9240;SDS011;53485;49.326;9.738;2022-07-17T03:51:09;3.37;;;1.00;;
9240;SDS011;53485;49.326;9.738;2022-07-17T03:53:36;1.93;;;0.97;;
9240;SDS011;53485;49.326;9.738;2022-07-17T03:56:04;1.20;;;0.80;;
9240;SDS011;53485;49.326;9.738;2022-07-17T03:58:32;0.93;;;0.90;;
9240;SDS011;53485;49.326;9.738;2022-07-17T04:00:59;3.60;;;0.97;;
9240;SDS011;53485;49.326;9.738;2022-07-17T04:03:26;1.40;;;0.90;;
9240;SDS011;53485;49.326;9.738;2022-07-17T04:05:53;0.80;;;0.80;;
9240;SDS011;53485;49.326;9.738;2022-07-17T04:08:20;3.27;;;0.90;;
9240;SDS011;53485;49.326;9.738;2022-07-17T04:10:48;2.23;;;1.07;;
9240;SDS011;53485;49.326;9.738;2022-07-17T04:13:15;1.27;;;0.90;;
9240;SDS011;53485;49.326;9.738;2022-07-17T04:15:42;2.70;;;1.00;;
9240;SDS011;53485;49.326;9.738;2022-07-17T04:18:16;4.27;;;0.80;;
9240;SDS011;53485;49.326;9.738;2022-07-17T04:20:43;1.53;;;0.87;;
9240;SDS011;53485;49.326;9.738;2022-07-17T04:23:10;1.40;;;0.93;;
9240;SDS011;53485;49.326;9.738;2022-07-17T04:25:38;5.27;;;0.90;;
9240;SDS011;53485;49.326;9.738;2022-07-17T04:28:05;0.80;;;0.80;;
9240;SDS011;53485;49.326;9.738;2022-07-17T04:30:32;1.67;;;0.90;;
9240;SDS011;53485;49.326;9.738;2022-07-17T04:32:58;2.10;;;1.07;;
9240;SDS011;53485;49.326;9.738;2022-07-17T04:35:26;3.33;;;0.80;;
9240;SDS011;53485;49.326;9.738;2022-07-17T04:37:53;1.10;;;0.80;;
9240;SDS011;53485;49.326;9.738;2022-07-17T04:40:21;2.00;;;0.90;;
9240;SDS011;53485;49.326;9.738;2022-07-17T04:42:47;0.80;;;0.80;;
9240;SDS011;53485;49.326;9.738;2022-07-17T04:45:15;2.27;;;0.90;;
9240;SDS011;53485;49.326;9.738;2022-07-17T04:47:42;0.80;;;0.80;;
9240;SDS011;53485;49.326;9.738;2022-07-17T04:50:10;2.83;;;1.07;;
9240;SDS011;53485;49.326;9.738;2022-07-17T04:52:37;0.90;;;0.80;;
9240;SDS011;53485;49.326;9.738;2022-07-17T04:55:04;2.00;;;0.70;;
9240;SDS011;53485;49.326;9.738;2022-07-17T04:57:32;2.00;;;0.77;;
9240;SDS011;53485;49.326;9.738;2022-07-17T05:00:00;1.63;;;0.80;;
9240;SDS011;53485;49.326;9.738;2022-07-17T05:02:27;1.90;;;0.93;;
9240;SDS011;53485;49.326;9.738;2022-07-17T05:04:54;1.63;;;0.70;;
9240;SDS011;53485;49.326;9.738;2022-07-17T05:07:21;2.20;;;0.90;;
9240;SDS011;53485;49.326;9.738;2022-07-17T05:09:49;2.33;;;0.80;;
9240;SDS011;53485;49.326;9.738;2022-07-17T05:12:16;1.57;;;0.70;;
9240;SDS011;53485;49.326;9.738;2022-07-17T05:14:43;3.00;;;0.70;;
9240;SDS011;53485;49.326;9.738;2022-07-17T05:17:11;1.07;;;0.80;;
9240;SDS011;53485;49.326;9.738;2022-07-17T05:19:38;0.90;;;0.70;;
9240;SDS011;53485;49.326;9.738;2022-07-17T05:22:05;1.77;;;0.70;;
9240;SDS011;53485;49.326;9.738;2022-07-17T05:24:32;1.77;;;0.80;;
9240;SDS011;53485;49.326;9.738;2022-07-17T05:27:00;0.70;;;0.70;;
9240;SDS011;53485;49.326;9.738;2022-07-17T05:29:27;1.40;;;0.70;;
9240;SDS011;53485;49.326;9.738;2022-07-17T05:31:54;1.10;;;0.70;;
9240;SDS011;53485;49.326;9.738;2022-07-17T05:34:22;1.00;;;0.70;;
9240;SDS011;53485;49.326;9.738;2022-07-17T05:36:49;1.27;;;0.70;;
9240;SDS011;53485;49.326;9.738;2022-07-17T05:39:16;1.30;;;0.70;;
9240;SDS011;53485;49.326;9.738;2022-07-17T05:41:44;0.77;;;0.60;;
9240;SDS011;53485;49.326;9.738;2022-07-17T05:44:11;1.10;;;0.50;;
9240;SDS011;53485;49.326;9.738;2022-07-17T05:46:38;0.97;;;0.70;;
9240;SDS011;53485;49.326;9.738;2022-07-17T05:49:05;2.13;;;0.73;;
9240;SDS011;53485;49.326;9.738;2022-07-17T05:51:33;2.17;;;0.80;;
9240;SDS011;53485;49.326;9.738;2022-07-17T05:54:00;1.73;;;0.60;;
9240;SDS011;53485;49.326;9.738;2022-07-17T05:56:28;1.20;;;0.70;;
9240;SDS011;53485;49.326;9.738;2022-07-17T05:58:55;1.93;;;0.70;;
9240;SDS011;53485;49.326;9.738;2022-07-17T06:01:22;1.60;;;0.70;;
9240;SDS011;53485;49.326;9.738;2022-07-17T06:03:50;0.73;;;0.50;;
9240;SDS011;53485;49.326;9.738;2022-07-17T06:06:17;0.83;;;0.70;;
9240;SDS011;53485;49.326;9.738;2022-07-17T06:08:44;0.60;;;0.60;;
9240;SDS011;53485;49.326;9.738;2022-07-17T06:11:12;1.87;;;0.70;;
9240;SDS011;53485;49.326;9.738;2022-07-17T06:13:39;0.87;;;0.60;;
9240;SDS011;53485;49.326;9.738;2022-07-17T06:16:06;0.50;;;0.50;;
9240;SDS011;53485;49.326;9.738;2022-07-17T06:18:33;0.90;;;0.50;;
9240;SDS011;53485;49.326;9.738;2022-07-17T06:21:01;3.30;;;0.60;;
9240;SDS011;53485;49.326;9.738;2022-07-17T06:23:28;1.03;;;0.50;;
9240;SDS011;53485;49.326;9.738;2022-07-17T06:25:55;2.07;;;0.60;;
9240;SDS011;53485;49.326;9.738;2022-07-17T06:28:22;2.43;;;0.60;;
9240;SDS011;53485;49.326;9.738;2022-07-17T06:30:49;0.97;;;0.70;;
9240;SDS011;53485;49.326;9.738;2022-07-17T06:33:17;1.17;;;0.70;;
9240;SDS011;53485;49.326;9.738;2022-07-17T06:35:44;0.97;;;0.57;;
9240;SDS011;53485;49.326;9.738;2022-07-17T06:38:12;1.37;;;0.60;;
9240;SDS011;53485;49.326;9.738;2022-07-17T06:40:39;1.77;;;0.40;;
9240;SDS011;53485;49.326;9.738;2022-07-17T06:43:06;1.13;;;0.70;;
9240;SDS011;53485;49.326;9.738;2022-07-17T06:45:34;1.87;;;0.50;;
9240;SDS011;53485;49.326;9.738;2022-07-17T06:48:01;0.60;;;0.57;;
9240;SDS011;53485;49.326;9.738;2022-07-17T06:50:28;3.30;;;0.70;;
9240;SDS011;53485;49.326;9.738;2022-07-17T06:52:56;1.13;;;0.60;;
9240;SDS011;53485;49.326;9.738;2022-07-17T06:55:23;2.50;;;0.67;;
9240;SDS011;53485;49.326;9.738;2022-07-17T06:57:51;2.80;;;0.87;;
9240;SDS011;53485;49.326;9.738;2022-07-17T07:00:18;1.77;;;0.60;;
9240;SDS011;53485;49.326;9.738;2022-07-17T07:02:46;0.60;;;0.60;;
9240;SDS011;53485;49.326;9.738;2022-07-17T07:05:13;0.80;;;0.67;;
9240;SDS011;53485;49.326;9.738;2022-07-17T07:07:40;1.27;;;0.70;;
9240;SDS011;53485;49.326;9.738;2022-07-17T07:10:08;2.13;;;0.70;;
9240;SDS011;53485;49.326;9.738;2022-07-17T07:12:35;1.07;;;0.60;;
9240;SDS011;53485;49.326;9.738;2022-07-17T07:15:03;2.13;;;0.80;;
9240;SDS011;53485;49.326;9.738;2022-07-17T07:17:33;0.67;;;0.67;;
9240;SDS011;53485;49.326;9.738;2022-07-17T07:19:58;2.53;;;0.80;;
9240;SDS011;53485;49.326;9.738;2022-07-17T07:22:25;0.70;;;0.70;;
9240;SDS011;53485;49.326;9.738;2022-07-17T07:24:52;2.07;;;0.70;;
9240;SDS011;53485;49.326;9.738;2022-07-17T07:27:20;1.00;;;0.80;;
9240;SDS011;53485;49.326;9.738;2022-07-17T07:29:47;2.53;;;0.70;;
9240;SDS011;53485;49.326;9.738;2022-07-17T07:32:15;2.83;;;0.90;;
9240;SDS011;53485;49.326;9.738;2022-07-17T07:34:41;1.03;;;0.70;;
9240;SDS011;53485;49.326;9.738;2022-07-17T07:37:09;1.27;;;0.80;;
9240;SDS011;53485;49.326;9.738;2022-07-17T07:39:36;0.87;;;0.73;;
9240;SDS011;53485;49.326;9.738;2022-07-17T07:42:04;2.33;;;0.83;;
9240;SDS011;53485;49.326;9.738;2022-07-17T07:44:31;2.43;;;0.80;;
9240;SDS011;53485;49.326;9.738;2022-07-17T07:46:58;0.70;;;0.70;;
9240;SDS011;53485;49.326;9.738;2022-07-17T07:49:25;1.83;;;0.80;;
9240;SDS011;53485;49.326;9.738;2022-07-17T07:51:52;3.33;;;0.80;;
9240;SDS011;53485;49.326;9.738;2022-07-17T07:54:19;1.80;;;0.70;;
9240;SDS011;53485;49.326;9.738;2022-07-17T07:56:47;3.33;;;0.70;;
9240;SDS011;53485;49.326;9.738;2022-07-17T07:59:14;1.03;;;0.90;;
9240;SDS011;53485;49.326;9.738;2022-07-17T08:01:41;1.90;;;0.90;;
9240;SDS011;53485;49.326;9.738;2022-07-17T08:04:09;1.10;;;0.60;;
9240;SDS011;53485;49.326;9.738;2022-07-17T08:06:36;1.67;;;0.70;;
9240;SDS011;53485;49.326;9.738;2022-07-17T08:09:03;1.73;;;0.73;;
9240;SDS011;53485;49.326;9.738;2022-07-17T08:11:31;0.83;;;0.60;;
9240;SDS011;53485;49.326;9.738;2022-07-17T08:13:58;2.83;;;0.73;;
9240;SDS011;53485;49.326;9.738;2022-07-17T08:16:25;1.43;;;0.70;;
9240;SDS011;53485;49.326;9.738;2022-07-17T08:18:52;2.63;;;0.80;;
9240;SDS011;53485;49.326;9.738;2022-07-17T08:21:20;2.27;;;0.70;;
9240;SDS011;53485;49.326;9.738;2022-07-17T08:23:47;1.23;;;0.77;;
9240;SDS011;53485;49.326;9.738;2022-07-17T08:26:14;4.23;;;0.80;;
9240;SDS011;53485;49.326;9.738;2022-07-17T08:28:41;0.87;;;0.70;;
9240;SDS011;53485;49.326;9.738;2022-07-17T08:31:09;2.70;;;0.67;;
9240;SDS011;53485;49.326;9.738;2022-07-17T08:33:36;1.17;;;0.70;;
9240;SDS011;53485;49.326;9.738;2022-07-17T08:36:04;1.20;;;0.80;;
9240;SDS011;53485;49.326;9.738;2022-07-17T08:38:31;4.00;;;0.73;;
9240;SDS011;53485;49.326;9.738;2022-07-17T08:40:59;2.40;;;0.70;;
9240;SDS011;53485;49.326;9.738;2022-07-17T08:43:26;1.10;;;0.70;;
9240;SDS011;53485;49.326;9.738;2022-07-17T08:45:53;1.07;;;0.60;;
9240;SDS011;53485;49.326;9.738;2022-07-17T08:48:20;2.50;;;0.87;;
9240;SDS011;53485;49.326;9.738;2022-07-17T08:50:47;1.23;;;0.60;;
9240;SDS011;53485;49.326;9.738;2022-07-17T08:53:15;1.63;;;0.70;;
9240;SDS011;53485;49.326;9.738;2022-07-17T08:55:42;2.37;;;0.70;;
9240;SDS011;53485;49.326;9.738;2022-07-17T08:58:13;2.83;;;0.70;;
9240;SDS011;53485;49.326;9.738;2022-07-17T09:00:37;0.80;;;0.70;;
9240;SDS011;53485;49.326;9.738;2022-07-17T09:03:05;3.08;;;0.93;;
9240;SDS011;53485;49.326;9.738;2022-07-17T09:05:34;2.75;;;0.75;;
9240;SDS011;53485;49.326;9.738;2022-07-17T09:08:00;0.60;;;0.60;;
9240;SDS011;53485;49.326;9.738;2022-07-17T09:10:32;0.80;;;0.60;;
9240;SDS011;53485;49.326;9.738;2022-07-17T09:13:00;1.15;;;0.70;;
9240;SDS011;53485;49.326;9.738;2022-07-17T09:15:28;1.08;;;0.70;;
9240;SDS011;53485;49.326;9.738;2022-07-17T09:17:56;2.85;;;0.80;;
9240;SDS011;53485;49.326;9.738;2022-07-17T09:20:24;0.75;;;0.60;;
9240;SDS011;53485;49.326;9.738;2022-07-17T09:22:56;1.80;;;0.60;;
9240;SDS011;53485;49.326;9.738;2022-07-17T09:25:32;2.60;;;0.90;;
9240;SDS011;53485;49.326;9.738;2022-07-17T09:28:01;1.87;;;0.68;;
9240;SDS011;53485;49.326;9.738;2022-07-17T09:30:27;1.15;;;0.60;;
9240;SDS011;53485;49.326;9.738;2022-07-17T09:32:55;0.90;;;0.62;;
9240;SDS011;53485;49.326;9.738;2022-07-17T09:35:23;0.60;;;0.60;;
9240;SDS011;53485;49.326;9.738;2022-07-17T09:37:51;0.67;;;0.67;;
9240;SDS011;53485;49.326;9.738;2022-07-17T09:40:17;0.80;;;0.63;;
9240;SDS011;53485;49.326;9.738;2022-07-17T09:42:54;1.85;;;0.60;;
9240;SDS011;53485;49.326;9.738;2022-07-17T09:45:18;1.42;;;0.60;;
9240;SDS011;53485;49.326;9.738;2022-07-17T09:47:46;0.93;;;0.68;;
9240;SDS011;53485;49.326;9.738;2022-07-17T09:50:13;1.30;;;0.70;;
9240;SDS011;53485;49.326;9.738;2022-07-17T09:52:41;0.95;;;0.70;;
9240;SDS011;53485;49.326;9.738;2022-07-17T09:55:08;0.80;;;0.50;;
9240;SDS011;53485;49.326;9.738;2022-07-17T09:57:36;0.70;;;0.60;;
9240;SDS011;53485;49.326;9.738;2022-07-17T10:00:05;1.17;;;0.90;;
9240;SDS011;53485;49.326;9.738;2022-07-17T10:02:33;1.80;;;0.65;;
9240;SDS011;53485;49.326;9.738;2022-07-17T10:05:00;0.70;;;0.60;;
9240;SDS011;53485;49.326;9.738;2022-07-17T10:07:28;0.95;;;0.80;;
9240;SDS011;53485;49.326;9.738;2022-07-17T10:09:57;0.70;;;0.70;;
9240;SDS011;53485;49.326;9.738;2022-07-17T10:12:23;2.22;;;0.80;;
9240;SDS011;53485;49.326;9.738;2022-07-17T10:14:51;0.70;;;0.70;;
9240;SDS011;53485;49.326;9.738;2022-07-17T10:17:22;1.20;;;0.70;;
9240;SDS011;53485;49.326;9.738;2022-07-17T10:19:48;1.02;;;0.73;;
9240;SDS011;53485;49.326;9.738;2022-07-17T10:22:16;0.70;;;0.70;;
9240;SDS011;53485;49.326;9.738;2022-07-17T10:24:45;0.70;;;0.62;;
9240;SDS011;53485;49.326;9.738;2022-07-17T10:27:17;1.90;;;0.80;;
9240;SDS011;53485;49.326;9.738;2022-07-17T10:29:44;0.98;;;0.70;;
9240;SDS011;53485;49.326;9.738;2022-07-17T10:32:15;3.65;;;0.77;;
9240;SDS011;53485;49.326;9.738;2022-07-17T10:34:46;0.90;;;0.70;;
9240;SDS011;53485;49.326;9.738;2022-07-17T10:37:15;0.95;;;0.75;;
9240;SDS011;53485;49.326;9.738;2022-07-17T10:39:52;0.75;;;0.75;;
9240;SDS011;53485;49.326;9.738;2022-07-17T10:45:06;0.82;;;0.65;;
9240;SDS011;53485;49.326;9.738;2022-07-17T10:50:11;0.98;;;0.65;;
9240;SDS011;53485;49.326;9.738;2022-07-17T10:52:38;4.35;;;0.80;;
9240;SDS011;53485;49.326;9.738;2022-07-17T10:55:16;1.87;;;0.62;;
9240;SDS011;53485;49.326;9.738;2022-07-17T10:57:33;2.28;;;0.60;;
9240;SDS011;53485;49.326;9.738;2022-07-17T11:00:01;0.60;;;0.60;;
9240;SDS011;53485;49.326;9.738;2022-07-17T11:02:29;0.50;;;0.50;;
9240;SDS011;53485;49.326;9.738;2022-07-17T11:07:32;0.98;;;0.60;;
9240;SDS011;53485;49.326;9.738;2022-07-17T11:10:00;1.45;;;0.80;;
9240;SDS011;53485;49.326;9.738;2022-07-17T11:12:31;0.70;;;0.70;;
9240;SDS011;53485;49.326;9.738;2022-07-17T11:14:59;1.20;;;0.55;;
9240;SDS011;53485;49.326;9.738;2022-07-17T11:17:26;1.12;;;0.60;;
9240;SDS011;53485;49.326;9.738;2022-07-17T11:19:54;0.50;;;0.50;;
9240;SDS011;53485;49.326;9.738;2022-07-17T11:22:23;0.80;;;0.60;;
9240;SDS011;53485;49.326;9.738;2022-07-17T11:24:51;4.57;;;0.77;;
9240;SDS011;53485;49.326;9.738;2022-07-17T11:27:22;1.02;;;0.60;;
9240;SDS011;53485;49.326;9.738;2022-07-17T11:29:48;1.42;;;0.70;;
9240;SDS011;53485;49.326;9.738;2022-07-17T11:32:16;1.67;;;0.60;;
9240;SDS011;53485;49.326;9.738;2022-07-17T11:34:43;0.60;;;0.52;;
9240;SDS011;53485;49.326;9.738;2022-07-17T11:37:11;3.05;;;0.68;;
9240;SDS011;53485;49.326;9.738;2022-07-17T11:39:40;1.60;;;0.60;;
9240;SDS011;53485;49.326;9.738;2022-07-17T11:42:09;0.65;;;0.50;;
9240;SDS011;53485;49.326;9.738;2022-07-17T11:44:35;0.60;;;0.60;;
9240;SDS011;53485;49.326;9.738;2022-07-17T11:47:03;0.65;;;0.55;;
9240;SDS011;53485;49.326;9.738;2022-07-17T11:49:32;1.05;;;0.60;;
9240;SDS011;53485;49.326;9.738;2022-07-17T11:52:05;3.05;;;0.75;;
9240;SDS011;53485;49.326;9.738;2022-07-17T11:54:26;1.65;;;0.70;;
9240;SDS011;53485;49.326;9.738;2022-07-17T11:56:55;2.35;;;0.90;;
9240;SDS011;53485;49.326;9.738;2022-07-17T11:59:23;1.45;;;0.70;;
9240;SDS011;53485;49.326;9.738;2022-07-17T12:01:51;1.67;;;0.60;;
9240;SDS011;53485;49.326;9.738;2022-07-17T12:04:19;0.60;;;0.60;;
9240;SDS011;53485;49.326;9.738;2022-07-17T12:06:57;3.50;;;0.60;;
9240;SDS011;53485;49.326;9.738;2022-07-17T12:09:14;1.77;;;0.65;;
9240;SDS011;53485;49.326;9.738;2022-07-17T12:11:45;1.55;;;0.60;;
9240;SDS011;53485;49.326;9.738;2022-07-17T12:14:12;0.80;;;0.60;;
9240;SDS011;53485;49.326;9.738;2022-07-17T12:16:40;0.90;;;0.65;;
9240;SDS011;53485;49.326;9.738;2022-07-17T12:19:09;3.08;;;0.80;;
9240;SDS011;53485;49.326;9.738;2022-07-17T12:24:18;1.48;;;0.62;;
9240;SDS011;53485;49.326;9.738;2022-07-17T12:26:47;1.48;;;0.60;;
9240;SDS011;53485;49.326;9.738;2022-07-17T12:29:15;1.12;;;0.75;;
9240;SDS011;53485;49.326;9.738;2022-07-17T12:31:42;0.82;;;0.60;;
9240;SDS011;53485;49.326;9.738;2022-07-17T12:34:10;1.15;;;0.60;;
9240;SDS011;53485;49.326;9.738;2022-07-17T12:36:38;2.25;;;0.70;;
9240;SDS011;53485;49.326;9.738;2022-07-17T12:39:06;1.08;;;0.65;;
9240;SDS011;53485;49.326;9.738;2022-07-17T12:41:34;1.33;;;0.50;;
9240;SDS011;53485;49.326;9.738;2022-07-17T12:44:02;0.62;;;0.60;;
9240;SDS011;53485;49.326;9.738;2022-07-17T12:46:30;0.80;;;0.60;;
9240;SDS011;53485;49.326;9.738;2022-07-17T12:48:58;0.82;;;0.50;;
9240;SDS011;53485;49.326;9.738;2022-07-17T12:51:26;0.82;;;0.55;;
9240;SDS011;53485;49.326;9.738;2022-07-17T12:53:53;1.80;;;0.57;;
9240;SDS011;53485;49.326;9.738;2022-07-17T12:56:21;0.88;;;0.62;;
9240;SDS011;53485;49.326;9.738;2022-07-17T12:58:49;1.37;;;0.60;;
9240;SDS011;53485;49.326;9.738;2022-07-17T13:01:17;0.73;;;0.50;;
9240;SDS011;53485;49.326;9.738;2022-07-17T13:03:44;1.27;;;0.50;;
9240;SDS011;53485;49.326;9.738;2022-07-17T13:06:12;1.30;;;0.60;;
9240;SDS011;53485;49.326;9.738;2022-07-17T13:08:40;1.85;;;0.60;;
9240;SDS011;53485;49.326;9.738;2022-07-17T13:11:08;0.73;;;0.50;;
9240;SDS011;53485;49.326;9.738;2022-07-17T13:13:36;1.95;;;0.70;;
9240;SDS011;53485;49.326;9.738;2022-07-17T13:16:04;1.12;;;0.57;;
9240;SDS011;53485;49.326;9.738;2022-07-17T13:18:32;0.98;;;0.70;;
9240;SDS011;53485;49.326;9.738;2022-07-17T13:21:00;0.80;;;0.50;;
9240;SDS011;53485;49.326;9.738;2022-07-17T13:23:28;1.15;;;0.50;;
9240;SDS011;53485;49.326;9.738;2022-07-17T13:25:55;2.25;;;0.52;;
9240;SDS011;53485;49.326;9.738;2022-07-17T13:28:23;0.70;;;0.60;;
9240;SDS011;53485;49.326;9.738;2022-07-17T13:30:51;0.50;;;0.50;;
9240;SDS011;53485;49.326;9.738;2022-07-17T13:33:19;3.25;;;0.60;;
9240;SDS011;53485;49.326;9.738;2022-07-17T13:35:47;1.85;;;0.55;;
9240;SDS011;53485;49.326;9.738;2022-07-17T13:38:15;2.08;;;0.50;;
9240;SDS011;53485;49.326;9.738;2022-07-17T13:40:43;6.22;;;0.60;;
9240;SDS011;53485;49.326;9.738;2022-07-17T13:43:10;0.88;;;0.50;;
9240;SDS011;53485;49.326;9.738;2022-07-17T13:45:38;1.95;;;0.68;;
9240;SDS011;53485;49.326;9.738;2022-07-17T13:48:06;0.60;;;0.57;;
9240;SDS011;53485;49.326;9.738;2022-07-17T13:50:34;1.83;;;0.50;;
9240;SDS011;53485;49.326;9.738;2022-07-17T13:53:02;1.98;;;0.68;;
9240;SDS011;53485;49.326;9.738;2022-07-17T13:55:30;0.70;;;0.50;;
9240;SDS011;53485;49.326;9.738;2022-07-17T13:57:58;0.52;;;0.52;;
9240;SDS011;53485;49.326;9.738;2022-07-17T14:00:26;1.05;;;0.82;;
9240;SDS011;53485;49.326;9.738;2022-07-17T14:02:53;1.00;;;0.53;;
9240;SDS011;53485;49.326;9.738;2022-07-17T14:05:21;0.85;;;0.60;;
9240;SDS011;53485;49.326;9.738;2022-07-17T14:07:48;0.73;;;0.60;;
9240;SDS011;53485;49.326;9.738;2022-07-17T14:10:16;0.77;;;0.57;;
9240;SDS011;53485;49.326;9.738;2022-07-17T14:12:44;1.75;;;0.50;;
9240;SDS011;53485;49.326;9.738;2022-07-17T14:15:12;0.40;;;0.40;;
9240;SDS011;53485;49.326;9.738;2022-07-17T14:17:39;0.97;;;0.50;;
9240;SDS011;53485;49.326;9.738;2022-07-17T14:20:07;1.03;;;0.60;;
9240;SDS011;53485;49.326;9.738;2022-07-17T14:22:36;1.03;;;0.60;;
9240;SDS011;53485;49.326;9.738;2022-07-17T14:25:04;0.70;;;0.70;;
9240;SDS011;53485;49.326;9.738;2022-07-17T14:27:32;0.73;;;0.73;;
9240;SDS011;53485;49.326;9.738;2022-07-17T14:29:59;1.00;;;0.60;;
9240;SDS011;53485;49.326;9.738;2022-07-17T14:32:27;3.07;;;0.60;;
9240;SDS011;53485;49.326;9.738;2022-07-17T14:34:55;0.70;;;0.70;;
9240;SDS011;53485;49.326;9.738;2022-07-17T14:37:22;1.20;;;0.60;;
9240;SDS011;53485;49.326;9.738;2022-07-17T14:39:50;0.77;;;0.70;;
9240;SDS011;53485;49.326;9.738;2022-07-17T14:42:18;1.10;;;0.60;;
9240;SDS011;53485;49.326;9.738;2022-07-17T14:44:46;2.20;;;0.60;;
9240;SDS011;53485;49.326;9.738;2022-07-17T14:47:13;1.40;;;0.70;;
9240;SDS011;53485;49.326;9.738;2022-07-17T14:49:41;0.70;;;0.60;;
9240;SDS011;53485;49.326;9.738;2022-07-17T14:52:08;1.73;;;0.50;;
9240;SDS011;53485;49.326;9.738;2022-07-17T14:54:36;0.73;;;0.70;;
9240;SDS011;53485;49.326;9.738;2022-07-17T14:57:04;0.70;;;0.50;;
9240;SDS011;53485;49.326;9.738;2022-07-17T14:59:31;1.93;;;0.57;;
9240;SDS011;53485;49.326;9.738;2022-07-17T15:01:59;0.53;;;0.50;;
9240;SDS011;53485;49.326;9.738;2022-07-17T15:04:27;0.70;;;0.50;;
9240;SDS011;53485;49.326;9.738;2022-07-17T15:06:54;1.00;;;0.60;;
9240;SDS011;53485;49.326;9.738;2022-07-17T15:09:22;0.60;;;0.60;;
9240;SDS011;53485;49.326;9.738;2022-07-17T15:11:49;0.73;;;0.70;;